Time;durP1;ratioP1;P1;durP2;ratioP2;P2;SDS_P1;SDS_P2;PMS_P1;PMS_P2;Temp;Humidity;BMP_temperature;BMP_pressure;BME280_temperature;BME280_humidity;BME280_pressure;Samples;Min_cycle;Max_cycle;Signal;HPM_P1;HPM_P2
2021/12/07 00:00:18;;;;;;;;;25.25;25.25;;;;;10.99;92.55;101123.53;4995997;28;10817;-73
2021/12/07 00:03:14;;;;;;;;;27.75;26.50;;;;;11.01;92.39;101135.91;4994142;28;10783;-73
2021/12/07 00:06:10;;;;;;;;;25.50;25.25;;;;;10.99;92.65;101140.97;4995486;28;10917;-73
2021/12/07 00:08:40;;;;;;;;;29.75;27.75;;;;;11.01;93.01;101140.63;4994951;28;10926;-73
2021/12/07 00:11:10;;;;;;;;;21.25;20.75;;;;;10.95;93.38;101142.72;4996235;28;10663;-73
2021/12/07 00:14:12;;;;;;;;;26.25;26.25;;;;;11.04;93.00;101140.81;4995340;28;10651;-74
2021/12/07 00:17:09;;;;;;;;;23.00;23.00;;;;;10.96;93.43;101138.00;4992929;28;10940;-73
2021/12/07 00:19:37;;;;;;;;;28.75;27.00;;;;;10.98;93.73;101135.75;4995611;28;10914;-74
2021/12/07 00:22:07;;;;;;;;;27.75;25.50;;;;;11.01;93.27;101135.09;4994514;28;11033;-74
2021/12/07 00:24:49;;;;;;;;;31.00;31.00;;;;;11.05;93.27;101139.69;4984297;28;10872;-74
2021/12/07 00:27:30;;;;;;;;;34.25;31.50;;;;;11.04;93.43;101126.13;4995952;28;11061;-73
2021/12/07 00:30:30;;;;;;;;;34.75;34.50;;;;;11.01;94.02;101126.78;4993581;28;11159;-73
2021/12/07 00:33:16;;;;;;;;;26.50;26.50;;;;;11.02;94.17;101131.19;4994297;28;10926;-73
2021/12/07 00:36:12;;;;;;;;;35.75;31.75;;;;;11.15;93.74;101119.16;4995057;28;11584;-73
2021/12/07 00:39:07;;;;;;;;;26.25;25.50;;;;;11.08;94.22;101116.88;4992812;28;11003;-74
2021/12/07 00:42:04;;;;;;;;;31.50;30.50;;;;;11.18;93.91;101118.50;4995287;28;11180;-74
2021/12/07 00:45:00;;;;;;;;;25.25;20.50;;;;;11.17;93.86;101114.09;4995260;28;10886;-74
2021/12/07 00:47:56;;;;;;;;;21.50;19.75;;;;;11.17;93.91;101111.34;4985651;28;10857;-75
2021/12/07 00:50:54;;;;;;;;;30.25;28.75;;;;;11.17;93.69;101105.00;4991149;28;10812;-74
2021/12/07 00:53:50;;;;;;;;;25.25;25.25;;;;;11.15;93.98;101108.09;4983371;28;10930;-74
2021/12/07 00:56:47;;;;;;;;;24.25;23.75;;;;;11.21;93.98;101103.22;4990615;28;10756;-74
2021/12/07 00:59:42;;;;;;;;;37.50;30.25;;;;;11.07;94.50;101093.09;4973565;28;10742;-74
2021/12/07 01:02:10;;;;;;;;;25.25;25.25;;;;;11.18;94.33;101088.06;4975236;28;10771;-74
2021/12/07 01:05:03;;;;;;;;;26.25;26.25;;;;;11.27;93.96;101088.03;4974524;28;10787;-74
2021/12/07 01:26:39;;;;;;;;;26.25;26.25;;;;;11.28;93.70;101073.09;4993733;28;10675;-74
2021/12/07 01:29:36;;;;;;;;;30.25;30.25;;;;;11.26;94.05;101069.81;4993338;28;10672;-74
2021/12/07 01:36:00;;;;;;;;;29.75;29.75;;;;;11.35;93.60;101067.88;4994462;28;10858;-74
2021/12/07 02:01:19;;;;;;;;;24.00;23.50;;;;;11.30;93.79;101060.53;4994003;28;10908;-74
2021/12/07 02:04:15;;;;;;;;;24.00;23.75;;;;;11.30;93.46;101068.03;4994319;28;10674;-74
2021/12/07 02:07:12;;;;;;;;;26.75;26.75;;;;;11.30;93.64;101065.25;5003840;28;10763;-74
2021/12/07 02:09:58;;;;;;;;;24.50;24.50;;;;;11.38;93.43;101062.47;4993473;28;10923;-74
2021/12/07 02:12:41;;;;;;;;;22.25;21.50;;;;;11.33;93.57;101067.38;4993751;28;10692;-74
2021/12/07 02:15:37;;;;;;;;;26.50;26.50;;;;;11.27;93.73;101065.91;4993461;28;10534;-74
2021/12/07 02:18:32;;;;;;;;;25.00;24.50;;;;;11.24;93.64;101072.91;4989074;28;10413;-74
2021/12/07 02:21:28;;;;;;;;;21.00;20.00;;;;;11.36;93.49;101069.50;5004208;28;10667;-74
2021/12/07 02:24:25;;;;;;;;;26.25;26.25;;;;;11.34;93.05;101061.50;4992036;28;10542;-74
2021/12/07 02:27:21;;;;;;;;;16.25;16.25;;;;;11.30;93.31;101055.00;4991975;28;10755;-74
2021/12/07 02:30:19;;;;;;;;;21.00;21.00;;;;;11.25;93.50;101049.63;4993197;28;11301;-74
2021/12/07 02:33:15;;;;;;;;;24.00;24.00;;;;;11.21;93.70;101048.66;4993480;28;10800;-74
2021/12/07 02:36:11;;;;;;;;;24.75;24.75;;;;;11.26;93.65;101051.25;4993084;28;10578;-74
2021/12/07 02:38:38;;;;;;;;;22.00;22.00;;;;;11.28;93.72;101034.31;4992973;28;11327;-74
2021/12/07 02:41:34;;;;;;;;;24.75;24.25;;;;;11.21;94.03;101025.69;5003989;28;10639;-74
2021/12/07 02:44:32;;;;;;;;;18.00;18.00;;;;;11.26;93.60;101037.41;4993171;28;10705;-74
2021/12/07 02:47:27;;;;;;;;;24.00;24.00;;;;;11.23;93.89;101024.22;4992322;28;10496;-73
2021/12/07 02:50:09;;;;;;;;;37.00;32.00;;;;;11.29;93.65;101020.16;4991931;28;10570;-74
2021/12/07 02:53:05;;;;;;;;;25.00;25.00;;;;;11.15;93.89;101008.44;4992398;28;10581;-73
2021/12/07 02:55:34;;;;;;;;;25.75;24.75;;;;;11.22;94.02;101007.94;4993256;28;10556;-74
2021/12/07 02:58:30;;;;;;;;;25.00;24.50;;;;;11.24;93.57;101016.72;5001582;28;10855;-73
2021/12/07 03:01:07;;;;;;;;;25.00;24.00;;;;;11.30;93.52;101015.41;4993194;28;10602;-73
2021/12/07 03:04:09;;;;;;;;;26.00;23.75;;;;;11.21;93.90;101026.50;4992785;28;11324;-73
2021/12/07 03:07:04;;;;;;;;;27.50;26.25;;;;;11.26;93.81;101028.28;5008541;28;10700;-74
2021/12/07 03:28:51;;;;;;;;;31.50;30.75;;;;;11.21;93.71;101026.50;4987390;28;10411;-74
2021/12/07 03:31:46;;;;;;;;;31.00;27.50;;;;;11.27;93.71;101027.97;4985917;28;10733;-74
2021/12/07 03:34:14;;;;;;;;;27.25;26.75;;;;;11.30;93.35;101027.31;4978985;28;11067;-74
2021/12/07 03:37:10;;;;;;;;;40.50;38.00;;;;;11.33;93.10;101036.91;4976651;28;10929;-74
2021/12/07 03:40:07;;;;;;;;;44.75;38.50;;;;;11.31;93.08;101028.94;4989127;28;11494;-75
2021/12/07 03:42:35;;;;;;;;;42.50;39.00;;;;;11.30;93.14;101029.25;4996583;28;11589;-74
2021/12/07 03:45:17;;;;;;;;;33.00;32.00;;;;;11.24;93.54;101038.88;4995896;28;11241;-74
2021/12/07 03:47:45;;;;;;;;;42.75;38.50;;;;;11.36;92.90;101036.28;4996295;28;11072;-74
2021/12/07 03:50:41;;;;;;;;;39.00;32.75;;;;;11.21;93.74;101032.03;4990955;28;11271;-74
2021/12/07 03:53:36;;;;;;;;;26.25;26.25;;;;;11.26;93.21;101034.63;4976169;28;10850;-74
2021/12/07 03:56:32;;;;;;;;;32.25;27.25;;;;;11.30;93.04;101040.34;4976302;28;10756;-74
2021/12/07 03:59:28;;;;;;;;;37.00;33.50;;;;;11.26;92.98;101031.84;4985546;28;11532;-74
2021/12/07 04:02:24;;;;;;;;;33.25;33.25;;;;;11.20;93.22;101037.91;4995313;28;10948;-74
2021/12/07 04:05:22;;;;;;;;;26.00;26.00;;;;;11.24;93.11;101039.69;4995415;28;10572;-74
2021/12/07 04:07:51;;;;;;;;;25.50;23.25;;;;;11.24;93.20;101044.41;4995663;28;10870;-75
2021/12/07 04:10:47;;;;;;;;;25.00;25.00;;;;;11.22;93.47;101052.25;4976352;28;10575;-74
2021/12/07 04:13:44;;;;;;;;;30.25;27.25;;;;;11.22;92.92;101046.69;4994160;28;10666;-75
2021/12/07 04:16:34;;;;;;;;;32.25;32.00;;;;;11.21;93.46;101048.66;4995439;28;10855;-74
2021/12/07 04:19:16;;;;;;;;;29.00;29.00;;;;;11.22;93.52;101035.63;4992957;28;10582;-74
2021/12/07 04:22:11;;;;;;;;;35.00;33.50;;;;;11.18;93.58;101027.13;4993656;28;11341;-74
2021/12/07 04:24:39;;;;;;;;;31.50;31.50;;;;;11.21;92.86;101028.47;5010098;28;10733;-74
2021/12/07 04:27:20;;;;;;;;;43.50;38.75;;;;;11.10;93.84;101031.53;4995063;28;11704;-73
2021/12/07 04:30:22;;;;;;;;;38.00;37.00;;;;;11.19;93.34;101031.53;4985757;28;11004;-74
2021/12/07 04:33:18;;;;;;;;;33.25;32.75;;;;;11.25;93.08;101021.94;4979372;28;10814;-74
2021/12/07 04:36:14;;;;;;;;;49.00;43.00;;;;;11.19;93.11;101020.47;4974708;28;11038;-74
2021/12/07 04:39:09;;;;;;;;;38.25;36.50;;;;;11.19;92.66;101020.47;4976100;28;11378;-74
2021/12/07 04:42:05;;;;;;;;;38.25;36.25;;;;;11.24;92.77;101017.53;4993318;28;10835;-74
2021/12/07 04:45:05;;;;;;;;;35.25;34.50;;;;;11.25;92.85;101013.63;4994749;28;11905;-73
2021/12/07 05:00:19;;;;;;;;;38.50;35.75;;;;;11.24;92.83;101028.59;4992041;28;11067;-74
2021/12/07 05:02:53;;;;;;;;;37.25;36.50;;;;;11.19;93.02;101030.72;4976618;28;11105;-73
2021/12/07 05:05:52;;;;;;;;;44.00;39.25;;;;;11.31;92.67;101025.34;5005356;28;11232;-73
2021/12/07 05:08:55;;;;;;;;;34.00;33.00;;;;;11.18;92.80;101012.50;4994210;28;11248;-73
2021/12/07 05:12:05;;;;;;;;;35.50;33.00;;;;;11.24;92.71;101014.78;4993188;28;11723;-74
2021/12/07 05:15:13;;;;;;;;;32.25;32.25;;;;;11.23;92.51;101024.22;4992591;28;11038;-73
2021/12/07 05:24:00;;;;;;;;;35.75;34.75;;;;;11.20;92.91;101049.81;4991846;28;11167;-73
2021/12/07 05:39:28;;;;;;;;;33.50;32.00;;;;;11.13;93.57;101060.53;4991217;28;10975;-76
2021/12/07 05:41:56;;;;;;;;;37.25;36.25;;;;;11.13;93.26;101074.38;4990852;28;11142;-76
2021/12/07 05:44:24;;;;;;;;;28.75;27.75;;;;;11.14;93.53;101065.75;4993551;28;10679;-76
2021/12/07 05:46:52;;;;;;;;;31.00;31.00;;;;;11.13;93.61;101066.91;4992967;28;10769;-76
2021/12/07 05:49:20;;;;;;;;;36.25;35.00;;;;;11.13;93.69;101063.31;4993903;28;11015;-76
2021/12/07 05:51:48;;;;;;;;;34.50;33.25;;;;;11.12;93.34;101061.69;4991954;28;11872;-75
2021/12/07 05:54:20;;;;;;;;;41.50;38.00;;;;;11.19;93.24;101052.88;5001247;28;10941;-76
2021/12/07 05:56:48;;;;;;;;;29.25;29.00;;;;;11.13;93.53;101053.06;4991288;28;11166;-75
2021/12/07 05:59:17;;;;;;;;;32.25;31.25;;;;;11.18;93.33;101059.56;4993103;28;11144;-75
2021/12/07 06:01:45;;;;;;;;;45.00;41.00;;;;;11.20;93.05;101063.66;4993125;28;11081;-74
2021/12/07 06:04:13;;;;;;;;;35.25;33.50;;;;;11.14;93.39;101046.38;4993748;28;11394;-74
2021/12/07 06:06:41;;;;;;;;;38.00;36.75;;;;;11.11;93.60;101051.72;4993415;28;11019;-75
2021/12/07 06:09:09;;;;;;;;;37.00;35.75;;;;;11.18;93.48;101040.16;4993671;28;11085;-75
2021/12/07 06:11:36;;;;;;;;;41.50;38.00;;;;;11.16;93.51;101032.19;4993756;28;11010;-75
2021/12/07 06:14:36;;;;;;;;;43.25;38.75;;;;;11.11;93.65;101032.34;4993030;28;10861;-75
2021/12/07 06:17:31;;;;;;;;;42.00;38.00;;;;;11.17;93.97;101021.94;4992841;28;11166;-75
2021/12/07 06:20:28;;;;;;;;;49.50;40.00;;;;;11.10;94.15;101017.69;4960268;28;11205;-76
2021/12/07 06:23:17;;;;;;;;;44.50;38.00;;;;;11.26;93.59;101018.00;4973040;28;11523;-75
2021/12/07 06:25:47;;;;;;;;;45.75;39.50;;;;;11.24;93.93;101016.72;4973754;28;11130;-75
2021/12/07 06:28:17;;;;;;;;;35.25;33.25;;;;;11.24;93.45;101009.22;4974030;28;11243;-75
2021/12/07 06:30:53;;;;;;;;;41.75;38.75;;;;;11.20;93.89;101018.53;4958111;28;11009;-75
2021/12/07 06:33:25;;;;;;;;;43.50;39.50;;;;;11.28;93.58;101010.22;4957246;28;11149;-74
2021/12/07 06:35:57;;;;;;;;;42.50;39.00;;;;;11.34;93.42;101003.34;4972183;28;10832;-74
2021/12/07 06:38:53;;;;;;;;;44.50;38.50;;;;;11.43;92.77;101010.84;4972142;28;11184;-74
2021/12/07 06:41:21;;;;;;;;;46.25;41.00;;;;;11.50;92.38;101009.22;4974213;28;11240;-74
2021/12/07 06:44:17;;;;;;;;;28.00;28.00;;;;;11.52;92.21;101003.34;4992310;28;11222;-74
2021/12/07 06:47:12;;;;;;;;;37.50;36.50;;;;;11.55;92.01;101005.44;4992622;28;11131;-74
2021/12/07 06:50:10;;;;;;;;;35.50;33.75;;;;;11.52;91.95;101004.16;4991055;28;10922;-73
2021/12/07 06:53:06;;;;;;;;;29.75;29.75;;;;;11.51;91.94;101002.53;4993669;28;11918;-73
2021/12/07 06:56:05;;;;;;;;;37.00;36.00;;;;;11.55;91.93;101002.66;4976863;28;10866;-71
2021/12/07 06:59:00;;;;;;;;;40.00;34.50;;;;;11.58;91.93;100991.75;4978444;28;10894;-72
2021/12/07 07:01:28;;;;;;;;;47.50;43.00;;;;;11.61;91.89;100991.06;4980872;28;10884;-72
2021/12/07 07:04:24;;;;;;;;;37.75;36.00;;;;;11.57;91.95;100984.56;4993495;28;11042;-72
2021/12/07 07:07:22;;;;;;;;;42.25;39.00;;;;;11.64;91.81;100986.81;4994718;28;11074;-73
2021/12/07 07:10:18;;;;;;;;;43.75;39.50;;;;;11.61;91.85;100973.66;4996290;28;11088;-72
2021/12/07 07:13:14;;;;;;;;;42.25;38.50;;;;;11.68;91.86;100980.31;4994926;28;11119;-72
2021/12/07 07:16:10;;;;;;;;;49.00;42.75;;;;;11.59;92.20;100975.94;4985368;28;11266;-74
2021/12/07 07:18:52;;;;;;;;;44.50;39.75;;;;;11.81;91.91;100970.19;4977049;28;11569;-73
2021/12/07 07:21:47;;;;;;;;;39.25;36.25;;;;;11.83;91.90;100967.88;4976519;28;10877;-73
2021/12/07 07:24:45;;;;;;;;;45.75;40.75;;;;;11.85;91.65;100976.69;4976715;28;10974;-73
2021/12/07 07:27:30;;;;;;;;;45.50;40.50;;;;;11.94;91.42;100973.88;4976897;28;10938;-73
2021/12/07 07:29:58;;;;;;;;;66.50;52.25;;;;;11.95;91.07;100983.81;4978104;28;10937;-73
2021/12/07 07:32:54;;;;;;;;;59.00;50.25;;;;;11.96;91.25;100977.09;4975112;28;11533;-73
2021/12/07 07:35:22;;;;;;;;;49.25;43.50;;;;;12.11;90.73;100982.09;4992489;28;11621;-73
2021/12/07 07:38:19;;;;;;;;;53.25;45.50;;;;;12.14;90.60;100989.75;4995836;28;11541;-73
2021/12/07 07:40:49;;;;;;;;;56.50;48.25;;;;;12.25;90.58;100992.94;4996547;28;11241;-73
2021/12/07 07:43:44;;;;;;;;;58.00;47.75;;;;;12.22;89.84;100988.09;4994042;28;11610;-73
2021/12/07 07:46:13;;;;;;;;;69.50;57.25;;;;;12.25;89.50;100982.66;4989404;28;11642;-72
2021/12/07 07:49:08;;;;;;;;;47.50;42.00;;;;;12.26;89.09;100980.69;4986731;28;11596;-72
2021/12/07 07:52:04;;;;;;;;;41.75;38.50;;;;;12.22;89.64;100977.00;4976176;28;11183;-73
2021/12/07 07:55:01;;;;;;;;;40.25;37.25;;;;;12.15;89.47;100977.50;4975872;28;10760;-73
2021/12/07 07:57:56;;;;;;;;;37.25;33.75;;;;;12.20;88.98;100965.44;4975872;28;10767;-73
2021/12/07 08:00:24;;;;;;;;;32.50;32.25;;;;;12.18;89.01;100962.16;4976511;28;10678;-73
2021/12/07 08:03:20;;;;;;;;;35.75;34.75;;;;;12.34;88.22;100959.63;4986967;28;10730;-73
2021/12/07 08:05:49;;;;;;;;;45.25;40.50;;;;;12.40;88.23;100959.09;4977281;28;10607;-73
2021/12/07 08:08:44;;;;;;;;;54.00;43.75;;;;;12.47;87.96;100950.22;4987928;28;10785;-73
2021/12/07 08:11:40;;;;;;;;;43.00;38.75;;;;;12.52;87.52;100958.38;4974128;28;11005;-74
2021/12/07 08:14:08;;;;;;;;;38.75;36.00;;;;;12.52;87.90;100955.59;4990882;28;10776;-73
2021/12/07 08:16:36;;;;;;;;;31.50;29.50;;;;;12.64;87.46;100955.66;4976139;28;10703;-72
2021/12/07 08:19:21;;;;;;;;;39.75;35.50;;;;;12.83;86.92;100946.03;4988401;28;10587;-72
2021/12/07 08:21:49;;;;;;;;;32.75;32.75;;;;;12.84;86.68;100944.88;4995109;28;10679;-73
2021/12/07 08:24:45;;;;;;;;;33.00;31.50;;;;;12.74;86.65;100933.06;4982221;28;10472;-73
2021/12/07 08:27:13;;;;;;;;;33.25;30.25;;;;;12.97;85.80;100929.91;4995551;28;10404;-74
2021/12/07 08:30:16;;;;;;;;;28.75;26.75;;;;;13.05;85.78;100927.06;4989938;28;10299;-74
2021/12/07 08:32:47;;;;;;;;;44.50;38.00;;;;;13.17;85.58;100920.72;4999723;28;10512;-73
2021/12/07 08:35:43;;;;;;;;;42.75;38.75;;;;;13.24;84.74;100914.63;4990289;28;11382;-73
2021/12/07 08:38:38;;;;;;;;;53.50;46.25;;;;;13.27;84.07;100914.78;4994336;28;10428;-73
2021/12/07 08:41:34;;;;;;;;;46.00;40.75;;;;;13.27;83.76;100905.63;4973708;28;10946;-73
2021/12/07 08:44:30;;;;;;;;;34.50;34.00;;;;;13.20;83.22;100905.38;4973725;28;10768;-74
2021/12/07 08:47:26;;;;;;;;;33.00;33.00;;;;;13.40;82.81;100904.47;4975213;28;10186;-73
2021/12/07 08:50:26;;;;;;;;;34.00;33.25;;;;;13.30;82.20;100896.59;4976362;28;10192;-75
2021/12/07 08:53:23;;;;;;;;;39.75;37.75;;;;;13.50;81.76;100890.16;4992776;28;10274;-73
2021/12/07 09:01:56;;;;;;;;;35.25;34.25;;;;;13.68;81.67;100862.94;4992320;28;10002;-74
2021/12/07 09:04:54;;;;;;;;;40.50;36.75;;;;;13.67;80.68;100854.97;4978074;28;10288;-74
2021/12/07 09:07:50;;;;;;;;;28.75;28.50;;;;;13.72;80.80;100860.28;4987513;28;10271;-73
2021/12/07 09:10:46;;;;;;;;;22.75;22.75;;;;;13.86;80.89;100855.16;4992294;28;9897;-74
2021/12/07 09:13:28;;;;;;;;;23.00;23.00;;;;;13.80;80.24;100851.00;4992748;28;9566;-74
2021/12/07 09:16:24;;;;;;;;;22.00;22.00;;;;;13.88;79.74;100845.34;4991985;28;9717;-74
2021/12/07 09:19:20;;;;;;;;;34.25;33.75;;;;;14.03;79.68;100842.97;4980076;28;9712;-74
2021/12/07 09:22:16;;;;;;;;;24.25;24.25;;;;;13.99;79.55;100831.75;4974727;28;9831;-74
2021/12/07 09:25:12;;;;;;;;;21.00;20.00;;;;;14.11;78.71;100833.72;4986108;28;9704;-74
2021/12/07 09:27:42;;;;;;;;;26.00;24.75;;;;;14.07;78.87;100838.34;4994491;28;9551;-74
2021/12/07 09:30:38;;;;;;;;;22.50;22.50;;;;;14.16;78.92;100837.03;4991657;28;9583;-74
2021/12/07 09:33:34;;;;;;;;;21.00;21.00;;;;;14.21;78.71;100826.84;4992117;28;9678;-74
2021/12/07 09:36:30;;;;;;;;;22.00;22.00;;;;;14.25;78.43;100823.00;4986603;28;9490;-74
2021/12/07 09:39:26;;;;;;;;;19.00;19.00;;;;;14.28;78.00;100810.38;4993906;28;9559;-74
2021/12/07 09:42:21;;;;;;;;;21.00;21.00;;;;;14.26;78.00;100807.09;4977595;28;9427;-74
2021/12/07 09:45:08;;;;;;;;;19.33;19.33;;;;;14.41;77.72;100800.78;4979151;28;9478;-74
2021/12/07 09:48:06;;;;;;;;;20.67;20.67;;;;;14.58;76.84;100794.97;4979192;28;9171;-74
2021/12/07 09:51:03;;;;;;;;;20.67;19.33;;;;;14.82;76.72;100799.59;4979585;28;9254;-74
2021/12/07 09:54:01;;;;;;;;;24.00;24.00;;;;;14.98;76.64;100799.63;4993369;28;9389;-70
2021/12/07 09:56:56;;;;;;;;;22.67;21.67;;;;;15.16;75.31;100791.72;4991636;28;9153;-74
2021/12/07 09:59:52;;;;;;;;;12.33;12.33;;;;;15.35;74.97;100791.00;4993555;28;9187;-74
2021/12/07 10:02:20;;;;;;;;;16.33;16.33;;;;;15.44;74.10;100783.25;4977801;28;9088;-74
2021/12/07 10:04:57;;;;;;;;;14.00;14.00;;;;;15.43;73.41;100781.63;4978416;28;9119;-73
2021/12/07 10:07:53;;;;;;;;;16.50;16.50;;;;;15.52;72.80;100771.91;4973213;28;9654;-74
2021/12/07 10:10:56;;;;;;;;;13.67;13.67;;;;;15.53;73.19;100756.78;4983252;28;8855;-74
2021/12/07 10:13:43;;;;;;;;;15.50;15.50;;;;;15.49;72.15;100767.06;4992360;28;9060;-74
2021/12/07 10:16:33;;;;;;;;;13.75;13.75;;;;;15.73;71.62;100766.06;4985736;28;8879;-74
2021/12/07 10:19:34;;;;;;;;;13.50;13.50;;;;;16.00;71.26;100757.84;4978167;28;8854;-74
2021/12/07 10:22:35;;;;;;;;;12.00;11.00;;;;;16.06;70.21;100761.97;4991324;28;8880;-76
2021/12/07 10:25:31;;;;;;;;;12.50;12.50;;;;;16.19;69.88;100745.91;4988930;28;9591;-73
2021/12/07 10:28:28;;;;;;;;;13.50;13.50;;;;;16.20;69.42;100741.94;4990136;28;8842;-74
2021/12/07 10:31:53;;;;;;;;;13.75;13.75;;;;;16.27;69.28;100733.72;4999841;28;8932;-74
2021/12/07 10:34:50;;;;;;;;;12.25;12.25;;;;;16.28;68.52;100732.53;4998770;28;8902;-74
2021/12/07 10:38:08;;;;;;;;;13.75;13.75;;;;;16.48;68.60;100736.09;4997453;28;8858;-74
2021/12/07 10:41:10;;;;;;;;;13.50;13.50;;;;;16.52;68.29;100718.25;4980847;28;8913;-73
2021/12/07 10:44:15;;;;;;;;;12.75;12.75;;;;;16.61;68.70;100715.22;4987634;28;8850;-73
2021/12/07 10:47:04;;;;;;;;;12.75;12.75;;;;;16.87;67.15;100708.94;4996819;28;8850;-73
2021/12/07 10:50:05;;;;;;;;;13.25;13.25;;;;;16.82;67.13;100718.41;4979323;28;8857;-73
2021/12/07 10:53:01;;;;;;;;;10.00;10.00;;;;;16.76;66.32;100722.69;4979990;28;8971;-72
2021/12/07 10:55:56;;;;;;;;;12.25;12.25;;;;;16.51;67.45;100713.84;4997791;28;8850;-73
2021/12/07 10:59:04;;;;;;;;;18.50;18.00;;;;;16.47;67.56;100693.41;4999479;28;8834;-78
2021/12/07 11:01:41;;;;;;;;;11.75;11.75;;;;;16.49;68.43;100693.88;4999604;28;8954;-77
2021/12/07 11:04:31;;;;;;;;;13.75;13.75;;;;;16.40;68.34;100701.66;4999685;28;9490;-77
2021/12/07 11:07:20;;;;;;;;;12.25;12.25;;;;;16.46;67.66;100704.97;4998456;28;8874;-78
2021/12/07 11:10:09;;;;;;;;;10.25;9.75;;;;;16.42;67.49;100690.94;4998235;28;8854;-77
2021/12/07 11:12:47;;;;;;;;;11.00;11.00;;;;;16.32;67.64;100700.72;4999841;28;9738;-77
2021/12/07 11:15:23;;;;;;;;;13.75;12.00;;;;;16.26;68.44;100693.03;4998552;28;9031;-77
2021/12/07 11:18:30;;;;;;;;;14.00;14.00;;;;;16.39;68.72;100694.47;4999309;28;8858;-77
2021/12/07 11:21:30;;;;;;;;;13.00;13.00;;;;;16.37;68.43;100692.06;5010292;28;8879;-77
2021/12/07 11:24:38;;;;;;;;;19.00;19.00;;;;;16.49;67.83;100684.69;4999245;28;8889;-77
2021/12/07 11:30:48;;;;;;;;;16.00;16.00;;;;;16.42;68.01;100688.16;4999128;28;8890;-77
2021/12/07 11:33:44;;;;;;;;;23.00;23.00;;;;;16.42;67.54;100687.34;4997693;28;8862;-77
2021/12/07 11:36:56;;;;;;;;;12.50;12.50;;;;;16.29;68.13;100675.53;4999107;28;9722;-78
2021/12/07 11:39:54;;;;;;;;;8.25;8.25;;;;;16.22;68.32;100675.41;4996059;28;8954;-78
2021/12/07 11:42:39;;;;;;;;;19.00;19.00;;;;;16.33;67.55;100673.59;4995994;28;8889;-78
2021/12/07 11:45:35;;;;;;;;;11.33;11.33;;;;;16.39;69.05;100675.72;4996059;28;8873;-76
2021/12/07 11:48:35;;;;;;;;;11.75;11.75;;;;;16.55;66.94;100677.59;4993911;28;8862;-76
2021/12/07 11:51:04;;;;;;;;;9.00;9.00;;;;;16.56;67.13;100668.03;4994559;28;8843;-76
2021/12/07 11:53:33;;;;;;;;;13.00;13.00;;;;;16.54;67.23;100665.63;4995524;28;8858;-75
2021/12/07 11:56:29;;;;;;;;;12.75;12.75;;;;;16.46;67.27;100658.31;4993998;28;8838;-76
2021/12/07 11:59:25;;;;;;;;;13.25;12.25;;;;;16.45;67.50;100662.28;4995548;28;9583;-76
2021/12/07 12:02:22;;;;;;;;;11.75;11.75;;;;;16.40;67.92;100662.59;4995595;28;8860;-75
2021/12/07 12:05:06;;;;;;;;;10.75;10.75;;;;;16.40;67.63;100660.59;4984246;28;8880;-76
2021/12/07 12:07:36;;;;;;;;;10.00;10.00;;;;;16.26;67.76;100659.56;4987454;28;8843;-76
2021/12/07 12:10:33;;;;;;;;;12.75;12.25;;;;;16.48;67.21;100667.13;4996107;28;8893;-77
2021/12/07 12:13:29;;;;;;;;;9.25;9.25;;;;;16.33;67.27;100660.50;4996351;28;9721;-75
2021/12/07 12:16:51;;;;;;;;;9.50;9.50;;;;;16.29;67.53;100669.97;4993376;28;9575;-77
2021/12/07 12:20:13;;;;;;;;;12.25;12.25;;;;;16.26;67.63;100665.94;4995362;28;8865;-75
2021/12/07 12:23:09;;;;;;;;;12.00;12.00;;;;;16.15;67.89;100664.91;4973110;28;9615;-75
2021/12/07 12:26:08;;;;;;;;;12.50;12.00;;;;;16.13;68.19;100658.91;4992675;28;8846;-75
2021/12/07 12:29:22;;;;;;;;;15.00;15.00;;;;;16.12;68.40;100655.31;4995081;28;8827;-76
2021/12/07 12:32:31;;;;;;;;;7.00;7.00;;;;;16.01;68.68;100659.84;4975637;28;8872;-76
2021/12/07 12:35:14;;;;;;;;;12.00;12.00;;;;;15.90;68.92;100660.84;4979645;28;8861;-75
2021/12/07 12:38:20;;;;;;;;;11.50;11.50;;;;;15.76;68.96;100662.16;4961821;28;8864;-75
2021/12/07 12:41:17;;;;;;;;;11.00;11.00;;;;;15.78;69.19;100667.34;4975861;28;8856;-74
2021/12/07 12:44:15;;;;;;;;;11.25;11.00;;;;;15.67;69.63;100661.56;4974789;28;9783;-75
2021/12/07 12:47:11;;;;;;;;;13.00;13.00;;;;;15.66;70.24;100664.72;4975573;28;8857;-76
2021/12/07 12:50:20;;;;;;;;;13.75;13.75;;;;;15.51;70.14;100666.38;4973316;28;8864;-74
2021/12/07 12:53:32;;;;;;;;;16.00;16.00;;;;;15.32;71.00;100666.31;4978921;28;8903;-75
2021/12/07 12:56:36;;;;;;;;;21.00;21.00;;;;;15.27;71.17;100673.00;4975404;28;8975;-75
2021/12/07 12:59:37;;;;;;;;;19.00;19.00;;;;;15.35;70.86;100671.19;4975318;28;9037;-75
2021/12/07 13:02:29;;;;;;;;;33.75;28.50;;;;;15.23;71.33;100672.91;4979955;28;9201;-76
2021/12/07 13:05:05;;;;;;;;;29.75;29.00;;;;;15.22;71.23;100673.28;4975230;28;9576;-77
2021/12/07 13:08:15;;;;;;;;;29.75;29.25;;;;;15.20;71.35;100667.25;4985182;28;9508;-75
2021/12/07 13:11:11;;;;;;;;;39.00;36.50;;;;;15.12;71.19;100677.44;4974224;28;9522;-74
2021/12/07 13:14:14;;;;;;;;;21.67;20.67;;;;;15.15;71.05;100671.13;4975224;28;10026;-76
2021/12/07 13:17:16;;;;;;;;;23.67;23.67;;;;;14.94;71.51;100676.16;4977898;28;9338;-74
2021/12/07 13:20:18;;;;;;;;;28.33;25.00;;;;;14.86;71.97;100668.81;4975239;28;9169;-75
2021/12/07 13:23:07;;;;;;;;;13.33;13.33;;;;;14.86;71.74;100679.94;4992725;28;9328;-75
2021/12/07 13:26:03;;;;;;;;;16.67;16.67;;;;;14.77;71.92;100696.03;4982031;28;9106;-75
2021/12/07 13:29:10;;;;;;;;;29.67;26.33;;;;;14.71;71.70;100692.69;4974659;28;9090;-75
2021/12/07 13:32:06;;;;;;;;;29.00;25.67;;;;;14.44;72.23;100686.81;4986849;28;10159;-74
2021/12/07 13:35:10;;;;;;;;;19.25;19.25;;;;;14.37;72.54;100683.03;4976247;28;9399;-75
2021/12/07 13:38:22;;;;;;;;;20.00;20.00;;;;;14.20;72.70;100678.63;4989188;28;9480;-75
2021/12/07 13:41:20;;;;;;;;;16.33;16.33;;;;;14.22;72.93;100672.69;4976215;28;9307;-75
2021/12/07 13:44:16;;;;;;;;;18.25;18.25;;;;;14.20;72.18;100681.41;4972977;28;9179;-74
2021/12/07 13:47:18;;;;;;;;;20.25;20.25;;;;;14.12;72.31;100676.81;4974760;28;9489;-74
2021/12/07 13:50:25;;;;;;;;;25.75;25.75;;;;;14.01;72.67;100673.72;4985681;28;9790;-74
2021/12/07 13:53:00;;;;;;;;;23.25;21.75;;;;;13.90;73.38;100678.19;4959065;28;10455;-75
2021/12/07 13:55:56;;;;;;;;;58.75;48.50;;;;;13.72;73.59;100682.41;4973787;28;9543;-75
2021/12/07 13:58:59;;;;;;;;;27.75;27.00;;;;;13.60;74.00;100672.13;4990164;28;10916;-76
2021/12/07 14:01:58;;;;;;;;;29.00;29.00;;;;;13.70;73.79;100679.97;4991667;28;9836;-78
2021/12/07 14:05:10;;;;;;;;;33.75;32.75;;;;;13.69;74.14;100677.56;4983419;28;10030;-75
2021/12/07 14:07:41;;;;;;;;;48.25;40.75;;;;;13.44;74.70;100665.69;4985688;28;10362;-75
2021/12/07 14:10:48;;;;;;;;;35.25;33.25;;;;;13.12;75.94;100653.56;4991888;28;10213;-76
2021/12/07 14:13:19;;;;;;;;;35.50;34.25;;;;;13.08;76.21;100662.59;4993372;28;10376;-74
2021/12/07 14:16:21;;;;;;;;;46.50;39.75;;;;;13.06;76.15;100664.91;4983806;28;10305;-76
2021/12/07 14:19:18;;;;;;;;;43.00;38.00;;;;;12.94;75.97;100651.03;4993519;28;10721;-75
2021/12/07 14:22:14;;;;;;;;;35.00;34.00;;;;;13.03;75.95;100642.56;4992903;28;10620;-74
2021/12/07 14:25:16;;;;;;;;;32.25;32.25;;;;;13.02;75.76;100647.31;4993253;28;10572;-74
2021/12/07 14:28:22;;;;;;;;;30.50;30.50;;;;;12.97;75.62;100646.75;4977944;28;10363;-74
2021/12/07 14:31:19;;;;;;;;;38.25;36.75;;;;;12.91;75.59;100635.06;4973686;28;10412;-75
2021/12/07 14:34:23;;;;;;;;;36.75;35.00;;;;;12.68;76.19;100625.59;4973760;28;10550;-75
2021/12/07 14:37:18;;;;;;;;;35.25;32.50;;;;;12.75;76.15;100617.50;4984537;28;10798;-75
2021/12/07 14:40:14;;;;;;;;;35.50;34.00;;;;;12.78;75.81;100623.16;4973755;28;10569;-74
2021/12/07 14:43:11;;;;;;;;;35.75;33.50;;;;;12.68;75.63;100623.63;4984113;28;10694;-75